Time;durP1;ratioP1;P1;durP2;ratioP2;P2;SDS_P1;SDS_P2;PMS_P1;PMS_P2;Temp;Humidity;BMP_temperature;BMP_pressure;BME280_temperature;BME280_humidity;BME280_pressure;Samples;Min_cycle;Max_cycle;Signal;HPM_P1;HPM_P2
2022/08/13 00:00:33;;;;;;;;;;;;;;;;;;21083020;28;19931;-77
2022/08/13 00:10:36;;;;;;;;;;;;;;;;;;21100706;28;19928;-77
2022/08/13 00:20:38;;;;;;;;;;;;;;;;;;21132821;28;19949;-72
2022/08/13 00:30:40;;;;;;;;;;;;;;;;;;21154228;28;19908;-72
2022/08/13 00:40:41;;;;;;;;;;;;;;;;;;21140457;28;20295;-77
2022/08/13 00:50:43;;;;;;;;;;;;;;;;;;21092072;28;20450;-76
2022/08/13 01:00:46;;;;;;;;;;;;;;;;;;21089851;28;20343;-79
2022/08/13 01:10:48;;;;;;;;;;;;;;;;;;21089832;28;19924;-77
2022/08/13 01:20:50;;;;;;;;;;;;;;;;;;21088608;28;20288;-75
2022/08/13 01:30:52;;;;;;;;;;;;;;;;;;21087819;28;20431;-72
2022/08/13 01:40:57;;;;;;;;;;;;;;;;;;21090026;28;19953;-76
2022/08/13 01:50:59;;;;;;;;;;;;;;;;;;21088062;28;20419;-77
2022/08/13 02:01:01;;;;;;;;;;;;;;;;;;21084809;28;19931;-76
2022/08/13 02:11:04;;;;;;;;;;;;;;;;;;21084945;28;20602;-76
2022/08/13 02:21:07;;;;;;;;;;;;;;;;;;21082914;28;19924;-72
2022/08/13 02:31:12;;;;;;;;;;;;;;;;;;21082910;28;20015;-77
2022/08/13 02:41:42;;;;;;;;;;;;;;;;;;21082441;28;19923;-76
2022/08/13 02:52:04;;;;;;;;;;;;;;;;;;21082073;28;19924;-78
2022/08/13 03:02:10;;;;;;;;;;;;;;;;;;21081597;28;20376;-77
2022/08/13 03:12:14;;;;;;;;;;;;;;;;;;21086229;28;19924;-76
2022/08/13 03:22:16;;;;;;;;;;;;;;;;;;21084826;28;19931;-78
2022/08/13 03:32:19;;;;;;;;;;;;;;;;;;21079897;28;19924;-77
2022/08/13 03:42:22;;;;;;;;;;;;;;;;;;21098212;28;19930;-76
2022/08/13 03:52:24;;;;;;;;;;;;;;;;;;21101784;28;19924;-77
2022/08/13 04:02:28;;;;;;;;;;;;;;;;;;21096684;28;19928;-73
2022/08/13 04:12:30;;;;;;;;;;;;;;;;;;21094562;28;19931;-71
2022/08/13 04:22:31;;;;;;;;;;;;;;;;;;21092998;28;19931;-76
2022/08/13 04:32:33;;;;;;;;;;;;;;;;;;21092664;28;19985;-74
2022/08/13 04:42:34;;;;;;;;;;;;;;;;;;21092518;28;19924;-57
2022/08/13 04:52:37;;;;;;;;;;;;;;;;;;21091157;28;19924;-56
2022/08/13 05:02:39;;;;;;;;;;;;;;;;;;21094440;28;19947;-60
2022/08/13 05:12:41;;;;;;;;;;;;;;;;;;21095186;28;19930;-73
2022/08/13 05:22:44;;;;;;;;;;;;;;;;;;21091573;28;19924;-73
2022/08/13 05:32:46;;;;;;;;;;;;;;;;;;21088645;28;19928;-59
2022/08/13 05:42:48;;;;;;;;;;;;;;;;;;21112802;28;20376;-66
2022/08/13 05:52:50;;;;;;;;;;;;;;;;;;21085924;28;19931;-75
2022/08/13 06:13:13;;;;;;;;;;;;;;;;;;21084850;28;20015;-77
2022/08/13 06:23:16;;;;;;;;;;;;;;;;;;21086334;28;19967;-76
2022/08/13 06:33:21;;;;;;;;;;;;;;;;;;21083737;28;20295;-64
2022/08/13 06:43:23;;;;;;;;;;;;;;;;;;21081801;28;20061;-64
2022/08/13 06:53:25;;;;;;;;;;;;;;;;;;21081347;28;20407;-59
2022/08/13 07:03:27;;;;;;;;;;;;;;;;;;21080419;28;19924;-76
2022/08/13 07:13:28;;;;;;;;;;;;;;;;;;21078203;28;20357;-62
2022/08/13 07:23:31;;;;;;;;;;;;;;;;;;21079816;28;19924;-75
2022/08/13 07:33:34;;;;;;;;;;;;;;;;;;21080759;28;19931;-76
2022/08/13 07:43:36;;;;;;;;;;;;;;;;;;21078993;28;19935;-74
2022/08/13 07:53:39;;;;;;;;;;;;;;;;;;21078282;28;19930;-78
2022/08/13 08:03:42;;;;;;;;;;;;;;;;;;21081162;28;19947;-78
2022/08/13 08:13:43;;;;;;;;;;;;;;;;;;21079893;28;19986;-60
2022/08/13 08:23:45;;;;;;;;;;;;;;;;;;21085422;28;19931;-78
2022/08/13 08:33:47;;;;;;;;;;;;;;;;;;21094539;28;19977;-78
2022/08/13 08:43:49;;;;;;;;;;;;;;;;;;21093300;28;19928;-78
2022/08/13 08:53:51;;;;;;;;;;;;;;;;;;21120112;28;19928;-60
2022/08/13 09:03:54;;;;;;;;;;;;;;;;;;21142636;28;19931;-56
2022/08/13 09:13:57;;;;;;;;;;;;;;;;;;21113344;28;19928;-68
2022/08/13 09:24:01;;;;;;;;;;;;;;;;;;21090049;28;20405;-57
2022/08/13 09:34:03;;;;;;;;;;;;;;;;;;21135397;28;19979;-56
2022/08/13 09:44:05;;;;;;;;;;;;;;;;;;21090323;28;20345;-78
2022/08/13 09:54:08;;;;;;;;;;;;;;;;;;21086087;28;19981;-63
2022/08/13 10:04:12;;;;;;;;;;;;;;;;;;21084289;28;19924;-78
2022/08/13 10:14:13;;;;;;;;;;;;;;;;;;21083344;28;20412;-58
2022/08/13 10:24:15;;;;;;;;;;;;;;;;;;21083863;28;19931;-77
2022/08/13 10:34:22;;;;;;;;;;;;;;;;;;21084580;28;19924;-76
2022/08/13 10:44:23;;;;;;;;;;;;;;;;;;21086902;28;20327;-77
2022/08/13 10:54:25;;;;;;;;;;;;;;;;;;21082717;28;19971;-78
2022/08/13 11:04:28;;;;;;;;;;;;;;;;;;21080806;28;19953;-76
2022/08/13 11:14:29;;;;;;;;;;;;;;;;;;21083789;28;20096;-75
2022/08/13 11:24:33;;;;;;;;;;;;;;;;;;21084369;28;20193;-78
2022/08/13 11:34:34;;;;;;;;;;;;;;;;;;21114789;28;19935;-76
2022/08/13 11:44:36;;;;;;;;;;;;;;;;;;21138489;28;19934;-74
2022/08/13 11:54:37;;;;;;;;;;;;;;;;;;21133913;28;20018;-77
2022/08/13 12:04:39;;;;;;;;;;;;;;;;;;21098235;28;20280;-77
2022/08/13 12:14:41;;;;;;;;;;;;;;;;;;21098435;28;19928;-62
2022/08/13 12:24:42;;;;;;;;;;;;;;;;;;21095086;28;19924;-79
2022/08/13 12:34:44;;;;;;;;;;;;;;;;;;21092470;28;19924;-78
2022/08/13 12:44:46;;;;;;;;;;;;;;;;;;21091719;28;20066;-75
2022/08/13 12:54:47;;;;;;;;;;;;;;;;;;21090116;28;19931;-67
2022/08/13 13:04:49;;;;;;;;;;;;;;;;;;21088946;28;19924;-63
2022/08/13 13:14:50;;;;;;;;;;;;;;;;;;21088667;28;20284;-65
2022/08/13 13:24:54;;;;;;;;;;;;;;;;;;21088372;28;19928;-78
2022/08/13 13:34:55;;;;;;;;;;;;;;;;;;21089047;28;19990;-58
2022/08/13 13:44:57;;;;;;;;;;;;;;;;;;21091259;28;19928;-74
2022/08/13 13:54:59;;;;;;;;;;;;;;;;;;21095291;28;19978;-74
2022/08/13 14:05:00;;;;;;;;;;;;;;;;;;21095760;28;19924;-71
2022/08/13 14:15:02;;;;;;;;;;;;;;;;;;21089718;28;19924;-78
2022/08/13 14:25:04;;;;;;;;;;;;;;;;;;21082627;28;19924;-67
2022/08/13 14:35:06;;;;;;;;;;;;;;;;;;21082315;28;20007;-73
2022/08/13 14:55:28;;;;;;;;;;;;;;;;;;21086158;28;20383;-74
2022/08/13 15:05:30;;;;;;;;;;;;;;;;;;21079357;28;20003;-60
2022/08/13 15:15:32;;;;;;;;;;;;;;;;;;21080396;28;19977;-61
2022/08/13 15:25:33;;;;;;;;;;;;;;;;;;21078923;28;19931;-69
2022/08/13 15:35:35;;;;;;;;;;;;;;;;;;21091916;28;20363;-79
2022/08/13 15:45:37;;;;;;;;;;;;;;;;;;21097825;28;19924;-54
2022/08/13 15:55:39;;;;;;;;;;;;;;;;;;21096723;28;20005;-72
2022/08/13 16:05:41;;;;;;;;;;;;;;;;;;21094725;28;19946;-75
2022/08/13 16:15:43;;;;;;;;;;;;;;;;;;21093761;28;19931;-76
2022/08/13 16:25:46;;;;;;;;;;;;;;;;;;21092759;28;19931;-69
2022/08/13 16:35:48;;;;;;;;;;;;;;;;;;21096315;28;19924;-69
2022/08/13 16:45:50;;;;;;;;;;;;;;;;;;21126635;28;19935;-72
2022/08/13 16:55:52;;;;;;;;;;;;;;;;;;21147900;28;19936;-70
2022/08/13 17:16:14;;;;;;;;;;;;;;;;;;21090682;28;20010;-61
2022/08/13 17:26:15;;;;;;;;;;;;;;;;;;21111190;28;20392;-65
2022/08/13 17:36:18;;;;;;;;;;;;;;;;;;21093395;28;20009;-77
2022/08/13 17:46:20;;;;;;;;;;;;;;;;;;21091302;28;20372;-76
2022/08/13 17:56:21;;;;;;;;;;;;;;;;;;21103863;28;19969;-58
2022/08/13 18:06:23;;;;;;;;;;;;;;;;;;21112548;28;19987;-57
2022/08/13 18:16:25;;;;;;;;;;;;;;;;;;21103495;28;19931;-57
2022/08/13 18:26:29;;;;;;;;;;;;;;;;;;21084842;28;20012;-70
2022/08/13 18:36:30;;;;;;;;;;;;;;;;;;21083776;28;19924;-59
2022/08/13 18:46:32;;;;;;;;;;;;;;;;;;21082768;28;20396;-71
2022/08/13 18:56:34;;;;;;;;;;;;;;;;;;21083147;28;20288;-78
2022/08/13 19:06:36;;;;;;;;;;;;;;;;;;21079905;28;19924;-77
2022/08/13 19:16:39;;;;;;;;;;;;;;;;;;21081809;28;19924;-71
2022/08/13 19:26:41;;;;;;;;;;;;;;;;;;21080126;28;20035;-57
2022/08/13 19:36:43;;;;;;;;;;;;;;;;;;21078956;28;19963;-77
2022/08/13 19:46:46;;;;;;;;;;;;;;;;;;21077365;28;20026;-76
2022/08/13 19:56:48;;;;;;;;;;;;;;;;;;21079453;28;19934;-74
2022/08/13 20:06:50;;;;;;;;;;;;;;;;;;21077980;28;20385;-74
2022/08/13 20:16:52;;;;;;;;;;;;;;;;;;21083843;28;19924;-72
2022/08/13 20:26:55;;;;;;;;;;;;;;;;;;21094955;28;19924;-75
2022/08/13 20:36:57;;;;;;;;;;;;;;;;;;21093165;28;19924;-75
2022/08/13 20:46:59;;;;;;;;;;;;;;;;;;21093067;28;19924;-75
2022/08/13 20:57:01;;;;;;;;;;;;;;;;;;21090452;28;19928;-76
2022/08/13 21:07:03;;;;;;;;;;;;;;;;;;21107285;28;19924;-58
2022/08/13 21:17:05;;;;;;;;;;;;;;;;;;21101403;28;19977;-75
2022/08/13 21:27:07;;;;;;;;;;;;;;;;;;21086997;28;19928;-72
2022/08/13 21:37:09;;;;;;;;;;;;;;;;;;21087090;28;19931;-76
2022/08/13 21:47:10;;;;;;;;;;;;;;;;;;21087024;28;19931;-75
2022/08/13 21:57:13;;;;;;;;;;;;;;;;;;21086702;28;20395;-75
2022/08/13 22:07:14;;;;;;;;;;;;;;;;;;21084487;28;19947;-72
2022/08/13 22:17:16;;;;;;;;;;;;;;;;;;21085342;28;19924;-73
2022/08/13 22:27:17;;;;;;;;;;;;;;;;;;21085756;28;20002;-73
2022/08/13 22:37:19;;;;;;;;;;;;;;;;;;21081646;28;20296;-68
2022/08/13 22:47:21;;;;;;;;;;;;;;;;;;21081032;28;20296;-75
2022/08/13 22:57:22;;;;;;;;;;;;;;;;;;21082783;28;19931;-73
2022/08/13 23:07:24;;;;;;;;;;;;;;;;;;21080515;28;20407;-73
2022/08/13 23:17:26;;;;;;;;;;;;;;;;;;21106086;28;20014;-68
2022/08/13 23:27:28;;;;;;;;;;;;;;;;;;21105520;28;19950;-75
2022/08/13 23:37:30;;;;;;;;;;;;;;;;;;21081828;28;19924;-76
2022/08/13 23:47:32;;;;;;;;;;;;;;;;;;21080339;28;19931;-75
2022/08/13 23:57:34;;;;;;;;;;;;;;;;;;21092624;28;19969;-74
